Terminal Aerodrome Forecast
Issued by NWS

Home | Current Version | Previous Version | Text Only | Print | Product List | Glossary On
Versions: 1 2 3 4 5 6 7 8 9 10 11 12 13 14 15
000
FTAK31 PAJN 192300 RRA
TAFAJN
TAF
PAJN 192346Z 2000/2024 08012G20KT P6SM SCT080 OVC120
     FM200300 10012KT P6SM BKN050 BKN100
     FM200900 10008KT P6SM VCSH SCT025 OVC050
     FM201300 10010KT P6SM -RA SCT020 OVC040 WS020/14035KT=

USA.gov is the U.S. government's official web portal to all federal, state and local government web resources and services.